createdAt,value
2022-12-03T10:34:46.224Z,15.40
2022-12-03T10:37:22.307Z,14.70
2022-12-03T10:39:56.179Z,14.70
2022-12-03T10:42:34.338Z,14.70
2022-12-03T10:45:09.248Z,14.80
2022-12-03T10:47:36.425Z,14.80
2022-12-03T10:50:06.632Z,14.90
2022-12-03T10:52:33.813Z,15.00
2022-12-03T10:55:00.916Z,15.00
2022-12-03T10:57:28.131Z,15.00
2022-12-03T10:59:55.212Z,14.90
2022-12-03T11:02:24.808Z,14.80
2022-12-03T11:04:52.677Z,14.80
2022-12-03T11:07:21.553Z,14.90
2022-12-03T11:09:51.837Z,15.00
2022-12-03T11:12:27.774Z,15.10
2022-12-03T11:14:55.123Z,15.20
2022-12-03T11:17:45.272Z,15.30
2022-12-03T11:20:32.259Z,15.20
2022-12-03T11:22:59.904Z,15.30
2022-12-03T11:25:26.939Z,15.30
2022-12-03T11:28:15.374Z,15.30
2022-12-03T11:30:51.492Z,15.20
2022-12-03T11:33:33.910Z,15.10
2022-12-03T11:36:04.020Z,15.00
2022-12-03T11:39:00.305Z,14.80
2022-12-03T11:41:30.806Z,14.60
2022-12-03T11:44:01.814Z,14.50
2022-12-03T11:46:37.710Z,14.50
2022-12-03T11:49:36.274Z,14.60
2022-12-03T11:52:19.356Z,14.60
2022-12-03T11:54:50.689Z,14.60
2022-12-03T11:57:31.768Z,14.60
2022-12-03T12:00:15.352Z,14.60
2022-12-03T12:02:43.130Z,14.70
2022-12-03T12:05:16.337Z,14.70
2022-12-03T12:07:47.629Z,14.70
2022-12-03T12:10:45.442Z,14.70
2022-12-03T12:13:44.778Z,14.70
2022-12-03T12:16:11.946Z,14.70
2022-12-03T12:18:46.523Z,14.70
2022-12-03T12:21:40.992Z,14.70
2022-12-03T12:24:31.407Z,14.70
2022-12-03T12:27:06.388Z,14.70
2022-12-03T12:29:34.694Z,14.70
2022-12-03T12:32:10.939Z,14.70
2022-12-03T12:34:49.135Z,14.70
2022-12-03T12:37:33.467Z,14.70
2022-12-03T12:40:04.175Z,14.60
2022-12-03T12:42:42.791Z,14.60
2022-12-03T12:45:16.240Z,14.60
2022-12-03T12:47:57.348Z,14.60
2022-12-03T12:50:24.823Z,14.60
2022-12-03T12:52:55.362Z,14.60
2022-12-03T12:55:23.979Z,14.60
2022-12-03T12:57:51.491Z,14.50
2022-12-03T13:00:22.123Z,14.40
2022-12-03T13:02:50.685Z,14.30
2022-12-03T13:05:18.062Z,14.40
2022-12-03T13:07:45.524Z,14.50
2022-12-03T13:10:33.891Z,14.60
2022-12-03T13:13:14.492Z,14.70
2022-12-03T13:15:48.811Z,14.80
2022-12-03T13:18:38.365Z,14.90
2022-12-03T13:21:19.223Z,15.00
2022-12-03T13:23:46.435Z,15.10
2022-12-03T13:26:34.500Z,15.10
2022-12-03T13:29:16.084Z,15.20
2022-12-03T13:31:58.308Z,15.20
2022-12-03T13:34:28.580Z,15.20
2022-12-03T13:36:58.419Z,15.30
2022-12-03T13:39:28.908Z,15.30
2022-12-03T13:42:15.229Z,15.30
2022-12-03T13:44:48.629Z,15.30
2022-12-03T13:47:22.294Z,15.30
2022-12-03T13:49:58.137Z,15.30
2022-12-03T13:52:26.605Z,15.30
2022-12-03T13:54:55.900Z,15.30
2022-12-03T13:57:23.331Z,15.30
2022-12-03T13:59:50.404Z,15.30
2022-12-03T14:02:17.499Z,15.30
2022-12-03T14:04:44.577Z,15.30
2022-12-03T14:07:11.656Z,15.30
2022-12-03T14:09:38.705Z,15.30
2022-12-03T14:12:24.377Z,15.30
2022-12-03T14:14:51.962Z,15.30
2022-12-03T14:17:19.002Z,15.30
2022-12-03T14:19:46.183Z,15.30
2022-12-03T14:22:13.238Z,15.30
2022-12-03T14:24:40.289Z,15.30
2022-12-03T14:27:07.339Z,15.30
2022-12-03T14:29:34.473Z,15.30
2022-12-03T14:32:01.827Z,15.30
2022-12-03T14:34:28.978Z,15.30
2022-12-03T14:36:56.491Z,15.30
2022-12-03T14:39:23.625Z,15.30
2022-12-03T14:42:09.232Z,15.20
2022-12-03T14:44:36.323Z,15.20
2022-12-03T14:47:03.749Z,15.20
2022-12-03T14:49:30.820Z,15.20
2022-12-03T14:51:57.903Z,15.20
2022-12-03T14:54:24.979Z,15.20
2022-12-03T14:56:52.058Z,15.30
2022-12-03T14:59:23.129Z,15.30
2022-12-03T15:01:54.712Z,15.30
2022-12-03T15:04:21.942Z,15.30
2022-12-03T15:06:49.212Z,15.30
2022-12-03T15:09:16.357Z,15.30
2022-12-03T15:11:46.367Z,15.30
2022-12-03T15:14:13.938Z,15.30
2022-12-03T15:16:41.895Z,15.30
2022-12-03T15:19:09.065Z,15.30
2022-12-03T15:21:36.178Z,15.30
2022-12-03T15:24:03.397Z,15.30
2022-12-03T15:26:30.462Z,15.30
2022-12-03T15:28:57.572Z,15.30
2022-12-03T15:31:24.699Z,15.30
2022-12-03T15:33:51.835Z,15.30
2022-12-03T15:36:18.968Z,15.30
2022-12-03T15:38:45.994Z,15.30
2022-12-03T15:41:24.254Z,15.30
2022-12-03T15:43:52.663Z,15.30
2022-12-03T15:46:20.230Z,15.30
2022-12-03T15:48:48.289Z,15.30
2022-12-03T15:51:15.759Z,15.30
2022-12-03T15:53:43.177Z,15.30
2022-12-03T15:56:11.940Z,15.30
2022-12-03T15:58:40.173Z,15.30
2022-12-03T16:01:08.298Z,15.30
2022-12-03T16:03:36.411Z,15.30
2022-12-03T16:06:03.561Z,15.30
2022-12-03T16:08:30.721Z,15.30
2022-12-03T16:10:57.945Z,15.30
2022-12-03T16:13:25.025Z,15.30
2022-12-03T16:15:52.191Z,15.40
2022-12-03T16:18:19.321Z,15.40
2022-12-03T16:20:46.516Z,15.40
2022-12-03T16:23:13.680Z,15.40
2022-12-03T16:25:40.705Z,15.40
2022-12-03T16:28:07.779Z,15.40
2022-12-03T16:30:36.045Z,15.30
2022-12-03T16:33:03.464Z,15.30
2022-12-03T16:35:30.672Z,15.30
2022-12-03T16:37:57.741Z,15.40
2022-12-03T16:40:24.815Z,15.40
2022-12-03T16:42:51.897Z,15.40
2022-12-03T16:45:21.711Z,15.40
2022-12-03T16:47:49.689Z,15.40
2022-12-03T16:50:24.307Z,15.40
